createdAt,value
2018-05-25T00:01:34.103Z,67.96
2018-05-25T00:04:00.142Z,67.15
2018-05-25T00:06:26.097Z,66.45
2018-05-25T00:08:52.180Z,67.46
2018-05-25T00:11:18.125Z,66.75
2018-05-25T00:13:44.264Z,67.01
2018-05-25T00:16:10.159Z,66.64
2018-05-25T00:18:36.116Z,67.57
2018-05-25T00:21:02.099Z,66.10
2018-05-25T00:23:28.029Z,66.14
2018-05-25T00:25:54.027Z,64.25
2018-05-25T00:28:19.988Z,65.25
2018-05-25T00:30:45.896Z,66.84
2018-05-25T00:33:11.900Z,65.09
2018-05-25T00:35:37.809Z,65.64
2018-05-25T00:38:07.633Z,64.69
2018-05-25T00:40:36.272Z,65.74
2018-05-25T00:43:02.217Z,66.31
2018-05-25T00:45:28.142Z,65.93
2018-05-25T00:47:54.173Z,65.74
2018-05-25T00:50:20.173Z,65.31
2018-05-25T00:52:46.088Z,66.73
2018-05-25T00:55:24.488Z,65.75
2018-05-25T00:57:50.468Z,65.54
2018-05-25T01:00:16.391Z,66.19
2018-05-25T01:02:42.367Z,65.70
2018-05-25T01:05:08.296Z,65.83
2018-05-25T01:07:34.547Z,66.50
2018-05-25T01:10:00.673Z,67.01
2018-05-25T01:12:26.610Z,66.66
2018-05-25T01:14:52.576Z,66.34
2018-05-25T01:17:18.559Z,66.55
2018-05-25T01:19:44.575Z,66.45
2018-05-25T01:22:11.579Z,66.69
2018-05-25T01:24:38.143Z,66.22
2018-05-25T01:27:04.182Z,66.97
2018-05-25T01:29:30.198Z,67.71
2018-05-25T01:31:56.224Z,67.10
2018-05-25T01:34:22.219Z,67.58
2018-05-25T01:36:48.179Z,68.67
2018-05-25T01:39:14.145Z,67.57
2018-05-25T01:41:40.947Z,68.84
2018-05-25T01:44:06.871Z,69.11
2018-05-25T01:46:33.167Z,68.27
2018-05-25T01:48:59.069Z,68.25
2018-05-25T01:51:25.019Z,67.96
2018-05-25T01:53:51.191Z,68.72
2018-05-25T01:56:17.096Z,68.06
2018-05-25T01:58:43.007Z,68.19
2018-05-25T02:01:10.043Z,68.76
2018-05-25T02:03:36.128Z,69.35
2018-05-25T02:06:02.142Z,69.33
2018-05-25T02:08:28.092Z,70.04
2018-05-25T02:10:54.019Z,69.20
2018-05-25T02:13:19.991Z,69.26
2018-05-25T02:15:45.948Z,68.13
2018-05-25T02:18:11.938Z,69.03
2018-05-25T02:20:37.871Z,68.60
2018-05-25T02:23:03.821Z,69.02
2018-05-25T02:25:30.134Z,69.96
2018-05-25T02:27:56.179Z,68.03
2018-05-25T02:30:22.251Z,68.48
2018-05-25T02:32:48.159Z,68.90
2018-05-25T02:35:14.096Z,69.09
2018-05-25T02:37:52.269Z,68.54
2018-05-25T02:40:18.172Z,68.89
2018-05-25T02:42:44.238Z,69.18
2018-05-25T02:45:10.538Z,69.12
2018-05-25T02:47:36.495Z,69.38
2018-05-25T02:50:02.411Z,69.27
2018-05-25T02:52:28.399Z,68.97
2018-05-25T02:54:54.461Z,68.94
2018-05-25T02:57:20.491Z,69.38
2018-05-25T02:59:46.467Z,69.22
2018-05-25T03:02:12.404Z,69.19
2018-05-25T03:04:38.306Z,69.19
2018-05-25T03:07:04.446Z,69.49
2018-05-25T03:09:30.415Z,68.50
2018-05-25T03:11:56.399Z,69.04
2018-05-25T03:14:22.419Z,68.96
2018-05-25T03:16:48.340Z,69.16
2018-05-25T03:19:14.311Z,70.88
2018-05-25T03:21:40.365Z,70.46
2018-05-25T03:24:06.361Z,70.73
2018-05-25T03:26:32.271Z,70.30
2018-05-25T03:28:58.315Z,70.84
2018-05-25T03:31:24.422Z,71.18
2018-05-25T03:33:50.496Z,70.79
2018-05-25T03:36:21.552Z,70.82
2018-05-25T03:38:47.495Z,70.73
2018-05-25T03:41:13.438Z,70.69
2018-05-25T03:43:39.579Z,70.47
2018-05-25T03:46:05.481Z,71.31
2018-05-25T03:48:31.448Z,71.12
2018-05-25T03:50:57.771Z,70.53
2018-05-25T03:53:23.797Z,70.52
2018-05-25T03:55:49.825Z,71.03
2018-05-25T03:58:15.808Z,71.26
2018-05-25T04:00:54.064Z,70.29
2018-05-25T04:03:20.059Z,71.50
2018-05-25T04:05:46.031Z,70.56
2018-05-25T04:08:12.040Z,71.15
2018-05-25T04:10:38.031Z,70.69
2018-05-25T04:13:03.942Z,69.05
2018-05-25T04:15:30.976Z,68.84
2018-05-25T04:17:57.188Z,68.74
2018-05-25T04:20:23.242Z,68.73
2018-05-25T04:22:49.176Z,68.05
2018-05-25T04:25:21.366Z,68.28
2018-05-25T04:27:47.312Z,68.38
2018-05-25T04:30:13.290Z,68.12
2018-05-25T04:32:40.285Z,67.02
2018-05-25T04:35:06.184Z,67.43
2018-05-25T04:37:32.100Z,66.80
2018-05-25T04:39:58.094Z,66.66
2018-05-25T04:42:24.107Z,67.17
2018-05-25T04:44:50.263Z,66.04
2018-05-25T04:47:16.216Z,64.88
2018-05-25T04:49:42.347Z,64.62
2018-05-25T04:52:08.309Z,64.25
2018-05-25T04:54:34.383Z,65.32
2018-05-25T04:57:00.377Z,64.65
2018-05-25T04:59:26.399Z,64.37
2018-05-25T05:01:52.512Z,64.25
2018-05-25T05:04:18.476Z,63.45
2018-05-25T05:06:44.616Z,62.46
2018-05-25T05:09:10.699Z,62.45
2018-05-25T05:11:36.666Z,61.82
2018-05-25T05:14:02.621Z,60.63
2018-05-25T05:16:28.630Z,60.08
2018-05-25T05:18:54.613Z,61.32
2018-05-25T05:21:20.704Z,59.01
2018-05-25T05:23:46.962Z,60.73
2018-05-25T05:26:12.879Z,59.92
2018-05-25T05:28:38.804Z,58.98
2018-05-25T05:31:07.943Z,59.56
2018-05-25T05:33:39.607Z,58.43
2018-05-25T05:36:08.335Z,57.78
2018-05-25T05:38:43.409Z,58.47
2018-05-25T05:41:09.948Z,57.34
2018-05-25T05:43:35.940Z,57.74
2018-05-25T05:46:02.032Z,56.89
2018-05-25T05:48:28.157Z,56.40
2018-05-25T05:50:54.174Z,56.67
2018-05-25T05:53:20.201Z,55.89
2018-05-25T05:55:49.388Z,56.73
2018-05-25T05:58:15.336Z,57.01
2018-05-25T06:00:41.340Z,56.93
2018-05-25T06:03:07.533Z,56.22
2018-05-25T06:05:33.459Z,55.18
2018-05-25T06:07:59.549Z,55.67
2018-05-25T06:10:25.530Z,55.48
2018-05-25T06:12:51.532Z,53.73
2018-05-25T06:15:17.466Z,54.05
2018-05-25T06:17:43.439Z,54.06
2018-05-25T06:20:09.432Z,54.72
2018-05-25T06:22:36.652Z,52.91
2018-05-25T06:25:02.965Z,53.35
2018-05-25T06:27:28.935Z,53.14
2018-05-25T06:29:54.893Z,53.05
2018-05-25T06:32:21.008Z,52.11
2018-05-25T06:34:46.986Z,52.67
2018-05-25T06:37:12.865Z,53.64
2018-05-25T06:39:39.004Z,53.30
2018-05-25T06:42:05.116Z,52.22
2018-05-25T06:44:31.129Z,52.23
2018-05-25T06:46:57.153Z,51.80
2018-05-25T06:49:23.217Z,51.70
2018-05-25T06:51:49.135Z,51.50
2018-05-25T06:54:15.101Z,50.71
2018-05-25T06:56:41.099Z,50.00
2018-05-25T06:59:06.992Z,49.96
2018-05-25T07:01:36.370Z,49.43
2018-05-25T07:04:10.361Z,48.00
2018-05-25T07:06:40.339Z,49.44
2018-05-25T07:09:10.035Z,49.90
2018-05-25T07:11:35.948Z,49.64
2018-05-25T07:14:10.180Z,48.37
2018-05-25T07:16:40.167Z,48.71
2018-05-25T07:19:06.792Z,45.84
2018-05-25T07:21:32.756Z,46.62
2018-05-25T07:23:58.767Z,47.24
2018-05-25T07:26:24.799Z,46.83
2018-05-25T07:28:50.903Z,47.85
2018-05-25T07:31:16.947Z,47.15
2018-05-25T07:33:43.568Z,46.97
2018-05-25T07:36:09.635Z,45.62
2018-05-25T07:38:35.840Z,46.76
2018-05-25T07:41:02.069Z,44.22
2018-05-25T07:43:28.156Z,44.47
2018-05-25T07:45:54.142Z,46.96
2018-05-25T07:48:20.373Z,42.54
2018-05-25T07:50:46.649Z,45.29
2018-05-25T07:53:14.078Z,43.17
2018-05-25T07:55:41.281Z,44.36
2018-05-25T07:58:07.392Z,42.97
2018-05-25T08:00:33.326Z,42.46
2018-05-25T08:02:59.414Z,40.05
2018-05-25T08:05:25.555Z,39.71
2018-05-25T08:07:51.699Z,41.44
2018-05-25T08:10:17.936Z,42.35
2018-05-25T08:12:44.726Z,41.57
2018-05-25T08:15:10.711Z,38.92
2018-05-25T08:17:41.077Z,40.70
2018-05-25T08:20:09.394Z,42.45
2018-05-25T08:22:38.636Z,39.77
2018-05-25T08:25:04.633Z,39.78
2018-05-25T08:27:30.763Z,40.84
2018-05-25T08:29:56.987Z,40.49
2018-05-25T08:32:23.145Z,39.56
2018-05-25T08:34:49.738Z,39.54
2018-05-25T08:37:18.612Z,38.98
2018-05-25T08:39:44.836Z,36.62
2018-05-25T08:42:10.919Z,35.87
2018-05-25T08:44:37.258Z,38.85
2018-05-25T08:47:06.127Z,37.18
2018-05-25T08:49:33.207Z,36.35
2018-05-25T08:52:00.098Z,36.76
2018-05-25T08:54:26.117Z,37.49
2018-05-25T08:56:52.303Z,37.66
2018-05-25T08:59:18.465Z,37.27
2018-05-25T09:01:44.563Z,37.31
2018-05-25T09:04:10.679Z,36.31
2018-05-25T09:06:36.668Z,37.68
2018-05-25T09:09:02.775Z,36.63
2018-05-25T09:11:28.792Z,34.98
2018-05-25T09:13:54.810Z,37.04
2018-05-25T09:16:20.906Z,35.85
2018-05-25T09:18:48.230Z,34.65
2018-05-25T09:21:14.233Z,33.84
2018-05-25T09:23:40.167Z,32.73
2018-05-25T09:26:09.640Z,33.80
2018-05-25T09:28:36.513Z,33.47
2018-05-25T09:31:02.578Z,34.73
2018-05-25T09:33:28.787Z,33.88
2018-05-25T09:35:54.885Z,32.17
2018-05-25T09:38:20.922Z,32.58
2018-05-25T09:40:46.943Z,34.43
2018-05-25T09:43:13.024Z,31.45
2018-05-25T09:45:38.775Z,32.16
2018-05-25T09:48:08.888Z,31.69
2018-05-25T09:50:34.807Z,32.25
2018-05-25T09:53:00.718Z,32.56
2018-05-25T09:55:26.791Z,31.90
2018-05-25T09:57:56.742Z,30.52
2018-05-25T10:00:24.666Z,31.76
2018-05-25T10:02:50.792Z,29.36
2018-05-25T10:05:16.735Z,30.43
2018-05-25T10:07:42.636Z,31.43
2018-05-25T10:10:08.604Z,35.08
2018-05-25T10:12:41.750Z,32.49
2018-05-25T10:15:07.692Z,29.12
2018-05-25T10:17:34.415Z,30.90
2018-05-25T10:20:00.364Z,29.13
2018-05-25T10:22:26.592Z,26.86
2018-05-25T10:24:52.885Z,28.47
2018-05-25T10:27:18.810Z,29.05
2018-05-25T10:29:45.511Z,29.10
2018-05-25T10:32:12.361Z,29.23
2018-05-25T10:34:38.991Z,26.31
2018-05-25T10:37:05.627Z,25.70
2018-05-25T10:39:31.764Z,26.20
2018-05-25T10:41:57.850Z,27.29
2018-05-25T10:44:23.885Z,28.63
2018-05-25T10:46:49.948Z,28.08
2018-05-25T10:49:15.876Z,27.89
2018-05-25T10:51:41.748Z,25.93
2018-05-25T10:54:08.769Z,24.81
2018-05-25T10:56:34.674Z,26.07
2018-05-25T10:59:00.685Z,27.00
2018-05-25T11:01:26.715Z,26.10
2018-05-25T11:03:52.786Z,26.10
2018-05-25T11:06:18.691Z,26.31
2018-05-25T11:08:44.705Z,24.75
2018-05-25T11:11:10.590Z,24.77
2018-05-25T11:13:36.582Z,26.17
2018-05-25T11:16:02.507Z,26.09
2018-05-25T11:18:28.447Z,24.83
2018-05-25T11:20:54.396Z,24.86
2018-05-25T11:23:20.593Z,24.76
2018-05-25T11:25:46.494Z,24.95
2018-05-25T11:28:12.379Z,25.95
2018-05-25T11:30:38.290Z,24.82
2018-05-25T11:33:04.267Z,25.36
2018-05-25T11:35:30.155Z,23.32
2018-05-25T11:37:56.263Z,23.68
2018-05-25T11:40:22.328Z,23.64
2018-05-25T11:42:48.244Z,22.49
2018-05-25T11:45:14.172Z,21.32
2018-05-25T11:47:41.091Z,23.54
2018-05-25T11:50:06.972Z,26.18
2018-05-25T11:52:32.913Z,23.78
2018-05-25T11:54:58.907Z,24.03
2018-05-25T11:57:24.913Z,24.40
2018-05-25T11:59:51.162Z,25.07
2018-05-25T12:02:17.072Z,22.59
2018-05-25T12:04:43.160Z,24.23
2018-05-25T12:07:09.139Z,22.24
2018-05-25T12:09:35.106Z,21.60
2018-05-25T12:12:03.184Z,22.01
2018-05-25T12:14:29.256Z,23.94
2018-05-25T12:16:55.232Z,26.83
2018-05-25T12:19:22.291Z,28.89
2018-05-25T12:21:48.275Z,28.57
2018-05-25T12:24:14.139Z,29.16
2018-05-25T12:26:40.043Z,28.77
2018-05-25T12:29:06.004Z,28.01
2018-05-25T12:31:41.757Z,26.60
2018-05-25T12:34:07.801Z,27.76
2018-05-25T12:36:34.081Z,27.93
2018-05-25T12:39:00.070Z,26.03
2018-05-25T12:41:26.173Z,27.71
2018-05-25T12:43:52.234Z,28.94
2018-05-25T12:46:18.156Z,27.64
2018-05-25T12:48:44.367Z,27.48
2018-05-25T12:51:12.353Z,26.83
2018-05-25T12:53:38.583Z,27.25
2018-05-25T12:56:04.507Z,28.17
2018-05-25T12:58:30.444Z,28.14
2018-05-25T13:00:56.404Z,29.25
2018-05-25T13:03:22.697Z,29.75
2018-05-25T13:05:50.154Z,30.23
2018-05-25T13:08:16.096Z,29.98
2018-05-25T13:10:42.078Z,29.14
2018-05-25T13:13:09.935Z,29.40
2018-05-25T13:15:40.712Z,28.27
2018-05-25T13:18:06.937Z,28.98
2018-05-25T13:20:32.928Z,29.01
2018-05-25T13:22:58.966Z,28.74
2018-05-25T13:25:25.007Z,28.81
2018-05-25T13:27:51.093Z,30.41
2018-05-25T13:30:17.217Z,30.07
2018-05-25T13:32:45.532Z,31.14
2018-05-25T13:35:11.496Z,29.11
2018-05-25T13:37:41.421Z,29.14
2018-05-25T13:40:11.175Z,27.02
2018-05-25T13:42:37.098Z,26.17
2018-05-25T13:45:03.031Z,26.97
2018-05-25T13:47:29.062Z,27.32
2018-05-25T13:49:55.128Z,27.07
2018-05-25T13:52:21.629Z,29.22
2018-05-25T13:54:47.645Z,29.78
2018-05-25T13:57:15.834Z,30.52
2018-05-25T13:59:41.724Z,30.99
2018-05-25T14:02:07.667Z,31.66
2018-05-25T14:04:33.537Z,31.04
2018-05-25T14:06:59.535Z,31.25
2018-05-25T14:09:25.513Z,31.71
2018-05-25T14:11:51.766Z,32.21
2018-05-25T14:14:18.229Z,30.28
2018-05-25T14:16:44.899Z,28.15
2018-05-25T14:19:10.887Z,28.08
2018-05-25T14:21:37.109Z,27.92
2018-05-25T14:24:06.283Z,27.46
2018-05-25T14:26:32.568Z,29.92
2018-05-25T14:28:58.578Z,28.95
2018-05-25T14:31:24.664Z,28.85
2018-05-25T14:33:52.150Z,28.17
2018-05-25T14:36:18.294Z,27.14
2018-05-25T14:38:44.887Z,26.89
2018-05-25T14:41:11.019Z,25.99
2018-05-25T14:43:38.014Z,28.34
2018-05-25T14:46:04.039Z,26.72
2018-05-25T14:48:30.269Z,27.16
2018-05-25T14:50:56.353Z,27.58
2018-05-25T14:53:23.163Z,27.83
2018-05-25T14:55:49.446Z,28.05
2018-05-25T14:58:15.456Z,26.79
2018-05-25T15:00:41.404Z,27.00
2018-05-25T15:03:07.320Z,23.48
2018-05-25T15:05:33.339Z,20.98
2018-05-25T15:07:59.491Z,17.55
2018-05-25T15:10:25.521Z,18.24
2018-05-25T15:12:51.801Z,15.17
2018-05-25T15:15:17.775Z,15.61
2018-05-25T15:17:43.795Z,11.41
2018-05-25T15:20:09.914Z,11.66
2018-05-25T15:22:35.918Z,11.77
2018-05-25T15:25:02.299Z,10.56
2018-05-25T15:27:28.346Z,10.65
2018-05-25T15:29:54.536Z,10.21
2018-05-25T15:32:20.583Z,12.72
2018-05-25T15:34:46.810Z,12.66
2018-05-25T15:37:13.940Z,11.76
2018-05-25T15:39:41.000Z,12.65
2018-05-25T15:42:06.905Z,12.76
2018-05-25T15:44:32.847Z,12.10
2018-05-25T15:46:59.110Z,13.79
2018-05-25T15:49:26.274Z,14.34
2018-05-25T15:51:52.586Z,17.70
2018-05-25T15:54:18.517Z,18.29
2018-05-25T15:56:44.630Z,19.58
2018-05-25T15:59:13.404Z,20.42
2018-05-25T16:01:39.440Z,21.19
2018-05-25T16:04:05.332Z,24.97
2018-05-25T16:06:31.348Z,24.30
2018-05-25T16:08:58.449Z,25.56
2018-05-25T16:11:24.553Z,26.90
2018-05-25T16:13:50.479Z,25.62
2018-05-25T16:16:16.921Z,26.82
2018-05-25T16:18:46.456Z,26.80
2018-05-25T16:21:12.799Z,27.11
2018-05-25T16:23:38.913Z,27.26
2018-05-25T16:26:05.256Z,28.71
2018-05-25T16:28:31.372Z,25.92
2018-05-25T16:30:57.256Z,27.09
2018-05-25T16:33:23.192Z,26.01
2018-05-25T16:35:49.117Z,26.72
2018-05-25T16:38:15.029Z,27.49
2018-05-25T16:40:40.992Z,27.71
2018-05-25T16:43:07.227Z,28.80
2018-05-25T16:45:33.244Z,27.35
2018-05-25T16:47:59.128Z,27.23
2018-05-25T16:50:25.052Z,27.43
2018-05-25T16:52:50.979Z,28.41
2018-05-25T16:55:16.822Z,28.27
2018-05-25T16:57:42.951Z,29.11
2018-05-25T17:00:10.263Z,29.97
2018-05-25T17:02:37.865Z,30.63
2018-05-25T17:05:04.642Z,29.31
2018-05-25T17:07:31.977Z,30.21
2018-05-25T17:09:57.933Z,31.27
2018-05-25T17:12:23.900Z,31.85
2018-05-25T17:14:49.756Z,30.93
2018-05-25T17:17:15.659Z,32.85
2018-05-25T17:19:42.182Z,32.95
2018-05-25T17:22:08.561Z,32.87
2018-05-25T17:24:34.968Z,32.97
2018-05-25T17:27:01.024Z,33.64
2018-05-25T17:29:28.959Z,32.44
2018-05-25T17:31:57.713Z,32.58
2018-05-25T17:34:23.788Z,33.80
2018-05-25T17:36:49.687Z,33.04
2018-05-25T17:39:15.577Z,34.20
2018-05-25T17:41:41.772Z,35.16
2018-05-25T17:44:08.034Z,35.45
2018-05-25T17:46:34.244Z,35.20
2018-05-25T17:49:00.520Z,36.03
2018-05-25T17:51:26.404Z,36.25
2018-05-25T17:53:52.293Z,35.78
2018-05-25T17:56:22.679Z,36.72
2018-05-25T17:58:48.569Z,37.03
2018-05-25T18:01:14.511Z,36.72
2018-05-25T18:03:40.642Z,35.69
2018-05-25T18:06:06.718Z,35.76
2018-05-25T18:08:32.760Z,36.60
2018-05-25T18:10:58.682Z,38.13
2018-05-25T18:13:24.573Z,36.82
2018-05-25T18:15:50.457Z,38.33
2018-05-25T18:18:16.402Z,38.21
2018-05-25T18:20:42.406Z,39.15
2018-05-25T18:23:08.455Z,39.03
2018-05-25T18:25:34.557Z,39.42
2018-05-25T18:28:00.436Z,39.62
2018-05-25T18:30:26.340Z,39.19
2018-05-25T18:32:52.298Z,40.31
2018-05-25T18:35:18.232Z,40.01
2018-05-25T18:37:46.156Z,40.62
2018-05-25T18:40:12.180Z,40.12
2018-05-25T18:42:38.319Z,40.13
2018-05-25T18:45:04.544Z,40.89
2018-05-25T18:47:30.511Z,41.44
2018-05-25T18:49:56.399Z,41.83
2018-05-25T18:52:22.303Z,42.43
2018-05-25T18:54:48.222Z,42.25
2018-05-25T18:57:14.196Z,42.25
2018-05-25T18:59:40.129Z,43.10
2018-05-25T19:02:06.390Z,42.01
2018-05-25T19:04:32.672Z,42.38
2018-05-25T19:06:58.584Z,43.05
2018-05-25T19:09:24.622Z,43.79
2018-05-25T19:11:50.527Z,42.74
2018-05-25T19:14:16.431Z,43.74
2018-05-25T19:16:42.474Z,44.37
2018-05-25T19:19:08.612Z,43.89
2018-05-25T19:21:34.699Z,43.48
2018-05-25T19:24:00.664Z,43.46
2018-05-25T19:26:26.564Z,44.17
2018-05-25T19:28:53.499Z,44.97
2018-05-25T19:31:19.612Z,44.10
2018-05-25T19:33:46.229Z,46.49
2018-05-25T19:36:12.501Z,46.52
2018-05-25T19:38:38.507Z,45.64
2018-05-25T19:41:04.352Z,44.46
2018-05-25T19:43:30.228Z,46.19
2018-05-25T19:45:56.326Z,46.43
2018-05-25T19:48:22.224Z,45.70
2018-05-25T19:50:48.270Z,46.23
2018-05-25T19:53:14.459Z,47.35
2018-05-25T19:55:40.345Z,47.67
2018-05-25T19:58:06.310Z,47.39
2018-05-25T20:00:32.256Z,47.87
2018-05-25T20:02:58.132Z,48.50
2018-05-25T20:05:27.207Z,48.96
2018-05-25T20:07:53.579Z,49.03
2018-05-25T20:10:19.667Z,48.82
2018-05-25T20:12:45.723Z,50.31
2018-05-25T20:15:11.852Z,49.51
2018-05-25T20:17:37.742Z,48.79
2018-05-25T20:20:03.629Z,50.15
2018-05-25T20:22:30.623Z,49.90
2018-05-25T20:24:56.509Z,50.35
2018-05-25T20:27:22.868Z,50.51
2018-05-25T20:29:48.829Z,52.23
2018-05-25T20:32:14.972Z,51.21
2018-05-25T20:34:40.967Z,51.63
2018-05-25T20:37:06.904Z,51.76
2018-05-25T20:39:32.782Z,53.94
2018-05-25T20:41:58.891Z,52.71
2018-05-25T20:44:25.130Z,52.51
2018-05-25T20:46:51.950Z,53.56
2018-05-25T20:49:17.905Z,54.03
2018-05-25T20:51:43.972Z,54.00
2018-05-25T20:54:10.069Z,53.48
2018-05-25T20:56:35.955Z,55.28
2018-05-25T20:59:02.090Z,56.03
2018-05-25T21:01:28.079Z,55.84
2018-05-25T21:03:53.951Z,56.29
2018-05-25T21:06:19.967Z,55.08
2018-05-25T21:08:46.113Z,55.40
2018-05-25T21:11:12.512Z,54.90
2018-05-25T21:13:38.587Z,56.12
2018-05-25T21:16:04.846Z,56.09
2018-05-25T21:18:30.763Z,55.47
2018-05-25T21:20:56.710Z,57.41
2018-05-25T21:23:22.708Z,57.92
2018-05-25T21:25:48.718Z,59.52
2018-05-25T21:28:15.006Z,59.48
2018-05-25T21:30:41.047Z,58.88
2018-05-25T21:33:06.956Z,58.30
2018-05-25T21:35:32.910Z,59.30
2018-05-25T21:37:58.811Z,60.35
2018-05-25T21:40:24.690Z,59.01
2018-05-25T21:42:50.741Z,61.14
2018-05-25T21:45:17.167Z,61.65
2018-05-25T21:47:43.155Z,61.45
2018-05-25T21:50:09.123Z,62.68
2018-05-25T21:52:35.282Z,62.05
2018-05-25T21:55:01.531Z,63.13
2018-05-25T21:57:27.455Z,62.00
2018-05-25T21:59:53.447Z,61.91
2018-05-25T22:02:19.324Z,61.21
2018-05-25T22:04:45.547Z,61.91
2018-05-25T22:07:11.481Z,62.10
2018-05-25T22:09:37.524Z,62.22
2018-05-25T22:12:03.471Z,63.76
2018-05-25T22:14:29.358Z,63.06
2018-05-25T22:16:55.278Z,61.27
2018-05-25T22:19:21.245Z,62.86
2018-05-25T22:21:47.165Z,64.13
2018-05-25T22:24:13.086Z,65.32
2018-05-25T22:26:39.138Z,62.29
2018-05-25T22:29:05.112Z,62.49
2018-05-25T22:31:31.063Z,61.60
2018-05-25T22:33:57.054Z,63.68
2018-05-25T22:36:22.935Z,63.12
2018-05-25T22:38:48.960Z,64.15
2018-05-25T22:41:14.896Z,64.25
2018-05-25T22:43:53.058Z,63.99
2018-05-25T22:46:31.336Z,64.05
2018-05-25T22:49:09.785Z,64.45
2018-05-25T22:51:48.107Z,63.43
2018-05-25T22:54:40.851Z,64.88
2018-05-25T22:57:06.852Z,64.97
2018-05-25T22:59:32.823Z,66.01
2018-05-25T23:01:58.692Z,66.66
2018-05-25T23:04:24.654Z,66.47
2018-05-25T23:06:50.571Z,67.72
2018-05-25T23:09:16.792Z,67.33
2018-05-25T23:11:42.825Z,66.91
2018-05-25T23:14:08.707Z,66.20
2018-05-25T23:16:34.594Z,67.30
2018-05-25T23:19:00.556Z,67.27
2018-05-25T23:21:26.492Z,67.94
2018-05-25T23:23:52.448Z,67.04
2018-05-25T23:26:18.443Z,68.17
2018-05-25T23:28:44.308Z,67.96
2018-05-25T23:31:10.192Z,67.76
2018-05-25T23:33:36.186Z,68.00
2018-05-25T23:36:02.149Z,69.04
2018-05-25T23:38:28.031Z,70.11
2018-05-25T23:40:54.006Z,70.34
2018-05-25T23:43:19.895Z,70.43
2018-05-25T23:45:45.850Z,69.96
2018-05-25T23:48:11.904Z,69.60
2018-05-25T23:50:37.827Z,70.63
2018-05-25T23:53:03.704Z,70.44
2018-05-25T23:55:29.620Z,71.19
2018-05-25T23:57:55.582Z,70.64
